Time;durP1;ratioP1;P1;durP2;ratioP2;P2;SDS_P1;SDS_P2;PMS_P1;PMS_P2;Temp;Humidity;BMP_temperature;BMP_pressure;BME280_temperature;BME280_humidity;BME280_pressure;Samples;Min_cycle;Max_cycle;Signal;HPM_P1;HPM_P2
2022/01/12 00:00:09;;;;;;;11.20;5.30;;;;;;;;;;5071582;28;20032;-68
2022/01/12 00:02:35;;;;;;;11.63;5.10;;;;;;;;;;5071771;28;20043;-68
2022/01/12 00:05:00;;;;;;;12.65;5.20;;;;;;;;;;5071577;28;20063;-66
2022/01/12 00:07:26;;;;;;;11.60;4.97;;;;;;;;;;5071600;28;20403;-68
2022/01/12 00:09:51;;;;;;;13.23;4.53;;;;;;;;;;5071409;28;20381;-68
2022/01/12 00:12:17;;;;;;;12.65;5.20;;;;;;;;;;5071712;28;20068;-68
2022/01/12 00:14:42;;;;;;;12.95;5.20;;;;;;;;;;5071480;28;20349;-68
2022/01/12 00:17:08;;;;;;;13.20;5.25;;;;;;;;;;5071214;28;20052;-68
2022/01/12 00:19:33;;;;;;;8.98;4.35;;;;;;;;;;5071173;28;20020;-67
2022/01/12 00:21:59;;;;;;;9.43;4.25;;;;;;;;;;5071340;28;20090;-67
2022/01/12 00:24:28;;;;;;;9.90;4.05;;;;;;;;;;5071113;28;20024;-67
2022/01/12 00:35:06;;;;;;;8.38;4.18;;;;;;;;;;5071152;28;20503;-66
2022/01/12 00:37:31;;;;;;;8.32;3.75;;;;;;;;;;5071084;28;20025;-66
2022/01/12 00:39:58;;;;;;;11.85;4.15;;;;;;;;;;5070703;28;20029;-68
2022/01/12 00:42:27;;;;;;;8.43;4.05;;;;;;;;;;5071025;28;20025;-67
2022/01/12 00:44:53;;;;;;;9.02;3.83;;;;;;;;;;5070785;28;20024;-67
2022/01/12 00:47:19;;;;;;;9.48;3.60;;;;;;;;;;5071215;28;20059;-68
2022/01/12 00:49:44;;;;;;;5.90;3.00;;;;;;;;;;5070824;28;20499;-67
2022/01/12 00:52:10;;;;;;;6.90;3.03;;;;;;;;;;5070660;28;20036;-66
2022/01/12 00:54:35;;;;;;;6.32;2.70;;;;;;;;;;5070606;28;20028;-67
2022/01/12 00:57:01;;;;;;;7.30;2.83;;;;;;;;;;5070171;28;20028;-65
2022/01/12 00:59:26;;;;;;;7.50;3.25;;;;;;;;;;5070398;28;20383;-67
2022/01/12 01:01:52;;;;;;;7.13;2.95;;;;;;;;;;5070574;28;20031;-66
2022/01/12 01:04:17;;;;;;;6.45;2.88;;;;;;;;;;5071108;28;20016;-67
2022/01/12 01:06:43;;;;;;;6.72;2.72;;;;;;;;;;5070519;28;20024;-66
2022/01/12 01:09:08;;;;;;;6.15;2.83;;;;;;;;;;5070509;28;20021;-66
2022/01/12 01:11:34;;;;;;;6.50;2.80;;;;;;;;;;5070395;28;20442;-66
2022/01/12 01:14:09;;;;;;;6.25;2.55;;;;;;;;;;5070396;28;20434;-66
2022/01/12 01:27:18;;;;;;;5.57;2.25;;;;;;;;;;5070318;28;20097;-67
2022/01/12 01:29:44;;;;;;;6.25;2.30;;;;;;;;;;5069669;28;20492;-68
2022/01/12 01:32:11;;;;;;;7.70;2.78;;;;;;;;;;5070036;28;20020;-66
2022/01/12 01:34:43;;;;;;;5.63;2.33;;;;;;;;;;5070304;28;20028;-66
2022/01/12 01:37:08;;;;;;;7.85;2.30;;;;;;;;;;5070237;28;20028;-66
2022/01/12 01:39:34;;;;;;;5.32;2.10;;;;;;;;;;5070035;28;20029;-67
2022/01/12 01:42:05;;;;;;;5.78;2.70;;;;;;;;;;5070121;28;20107;-67
2022/01/12 01:55:19;;;;;;;6.72;2.67;;;;;;;;;;5070370;28;20294;-68
2022/01/12 01:57:45;;;;;;;6.65;2.65;;;;;;;;;;5070152;28;20160;-66
2022/01/12 02:00:14;;;;;;;5.13;2.60;;;;;;;;;;5069753;28;20123;-67
2022/01/12 02:02:39;;;;;;;6.03;2.85;;;;;;;;;;5069950;28;20087;-67
2022/01/12 02:05:06;;;;;;;6.75;2.58;;;;;;;;;;5069752;28;20064;-66
2022/01/12 02:07:33;;;;;;;6.20;2.88;;;;;;;;;;5071905;28;20037;-67
2022/01/12 02:09:59;;;;;;;5.15;2.30;;;;;;;;;;5073750;28;20107;-66
2022/01/12 02:12:27;;;;;;;5.80;2.40;;;;;;;;;;5074192;28;20111;-66
2022/01/12 02:14:54;;;;;;;6.25;2.67;;;;;;;;;;5073607;28;20380;-66
2022/01/12 02:17:24;;;;;;;5.43;2.50;;;;;;;;;;5073486;28;20404;-66
2022/01/12 02:36:11;;;;;;;8.57;3.35;;;;;;;;;;5073682;28;20028;-66
2022/01/12 02:41:22;;;;;;;7.43;3.15;;;;;;;;;;5073433;28;20244;-66
2022/01/12 02:54:53;;;;;;;7.55;3.13;;;;;;;;;;5073130;28;20036;-68
2022/01/12 02:57:20;;;;;;;5.78;2.70;;;;;;;;;;5072886;28;20029;-68
2022/01/12 03:00:09;;;;;;;6.35;2.90;;;;;;;;;;5072792;28;20027;-67
2022/01/12 03:02:38;;;;;;;6.55;3.00;;;;;;;;;;5073021;28;20024;-66
2022/01/12 03:08:01;;;;;;;7.85;2.67;;;;;;;;;;5052864;28;20062;-68
2022/01/12 03:10:27;;;;;;;7.53;2.75;;;;;;;;;;5072572;28;20105;-67
2022/01/12 03:12:52;;;;;;;5.30;2.70;;;;;;;;;;5072516;28;20028;-67
2022/01/12 03:15:18;;;;;;;7.05;3.08;;;;;;;;;;5072613;28;20031;-67
2022/01/12 03:17:43;;;;;;;7.55;2.70;;;;;;;;;;5072489;28;20048;-67
2022/01/12 03:20:09;;;;;;;6.40;3.05;;;;;;;;;;5072153;28;20056;-68
2022/01/12 03:22:35;;;;;;;6.53;3.00;;;;;;;;;;5072685;28;20020;-68
2022/01/12 03:25:01;;;;;;;7.43;2.78;;;;;;;;;;5072283;28;20039;-68
2022/01/12 03:27:27;;;;;;;6.63;2.60;;;;;;;;;;5072653;28;20033;-68
2022/01/12 03:29:56;;;;;;;5.45;2.53;;;;;;;;;;5072191;28;20550;-68
2022/01/12 03:32:31;;;;;;;5.38;2.25;;;;;;;;;;5072154;28;20026;-67
2022/01/12 03:35:07;;;;;;;4.63;2.30;;;;;;;;;;5072160;28;20472;-66
2022/01/12 03:37:42;;;;;;;5.00;2.38;;;;;;;;;;5072379;28;20364;-68
2022/01/12 03:40:09;;;;;;;4.88;2.13;;;;;;;;;;5072687;28;20021;-68
2022/01/12 03:42:34;;;;;;;4.05;1.92;;;;;;;;;;5070836;28;20024;-68
2022/01/12 03:45:00;;;;;;;5.20;2.28;;;;;;;;;;5071603;28;20035;-67
2022/01/12 03:47:25;;;;;;;4.45;2.35;;;;;;;;;;5072427;28;20023;-67
2022/01/12 03:49:51;;;;;;;5.35;2.42;;;;;;;;;;5072012;28;20020;-66
2022/01/12 03:52:16;;;;;;;7.43;2.38;;;;;;;;;;5072066;28;20089;-67
2022/01/12 03:54:42;;;;;;;3.95;2.05;;;;;;;;;;5072129;28;20484;-67
2022/01/12 03:57:07;;;;;;;4.38;2.10;;;;;;;;;;5071873;28;20495;-67
2022/01/12 03:59:33;;;;;;;4.85;2.20;;;;;;;;;;5071695;28;20483;-66
2022/01/12 04:01:58;;;;;;;6.43;2.20;;;;;;;;;;5071641;28;20033;-67
2022/01/12 04:04:32;;;;;;;4.82;2.10;;;;;;;;;;5071403;28;20028;-66
2022/01/12 04:09:45;;;;;;;5.43;1.98;;;;;;;;;;5071868;28;20078;-68
2022/01/12 04:12:12;;;;;;;6.82;2.17;;;;;;;;;;5071482;28;20024;-67
2022/01/12 04:14:37;;;;;;;5.38;2.10;;;;;;;;;;5071375;28;20032;-66
2022/01/12 04:17:03;;;;;;;4.53;2.13;;;;;;;;;;5069919;28;20541;-68
2022/01/12 04:19:29;;;;;;;3.88;1.98;;;;;;;;;;5071449;28;20480;-67
2022/01/12 04:21:54;;;;;;;5.75;2.40;;;;;;;;;;5071574;28;20456;-66
2022/01/12 04:24:20;;;;;;;5.00;2.15;;;;;;;;;;5071218;28;20028;-67
2022/01/12 04:26:45;;;;;;;5.07;2.05;;;;;;;;;;5071275;28;20224;-67
2022/01/12 04:29:12;;;;;;;5.75;2.20;;;;;;;;;;5071497;28;20475;-66
2022/01/12 04:31:38;;;;;;;4.68;2.00;;;;;;;;;;5070024;28;20028;-67
2022/01/12 04:34:05;;;;;;;6.00;1.88;;;;;;;;;;5070858;28;20531;-67
2022/01/12 04:36:32;;;;;;;7.38;2.45;;;;;;;;;;5070797;28;20464;-67
2022/01/12 04:38:57;;;;;;;7.60;2.30;;;;;;;;;;5070942;28;20028;-67
2022/01/12 04:41:24;;;;;;;5.32;2.03;;;;;;;;;;5070822;28;20024;-67
2022/01/12 04:43:50;;;;;;;5.20;2.10;;;;;;;;;;5070663;28;20025;-67
2022/01/12 04:51:26;;;;;;;4.50;1.88;;;;;;;;;;5070977;28;20035;-67
2022/01/12 04:53:53;;;;;;;6.05;2.25;;;;;;;;;;5070591;28;20025;-67
2022/01/12 04:56:18;;;;;;;5.18;1.80;;;;;;;;;;5070532;28;20039;-67
2022/01/12 04:58:44;;;;;;;4.78;2.03;;;;;;;;;;5070655;28;20024;-67
2022/01/12 05:01:13;;;;;;;8.00;1.70;;;;;;;;;;5070633;28;20054;-67
2022/01/12 05:09:13;;;;;;;6.72;1.90;;;;;;;;;;5070396;28;20063;-67
2022/01/12 05:14:24;;;;;;;4.47;2.05;;;;;;;;;;5070315;28;20551;-67
2022/01/12 05:16:51;;;;;;;6.40;1.70;;;;;;;;;;5070191;28;20036;-67
2022/01/12 05:19:16;;;;;;;4.65;1.65;;;;;;;;;;5070687;28;20060;-67
2022/01/12 05:21:42;;;;;;;3.88;1.48;;;;;;;;;;5070393;28;20048;-68
2022/01/12 05:24:10;;;;;;;3.97;1.73;;;;;;;;;;5070259;28;20078;-68
2022/01/12 05:26:36;;;;;;;4.07;1.70;;;;;;;;;;5069989;28;20025;-67
2022/01/12 05:29:01;;;;;;;2.80;1.50;;;;;;;;;;5070087;28;20029;-67
2022/01/12 05:31:27;;;;;;;6.55;1.65;;;;;;;;;;5070447;28;20020;-67
2022/01/12 05:33:52;;;;;;;9.55;1.95;;;;;;;;;;5070214;28;20032;-68
2022/01/12 05:36:19;;;;;;;8.07;1.90;;;;;;;;;;5070251;28;20498;-67
2022/01/12 05:38:46;;;;;;;6.95;2.08;;;;;;;;;;5070084;28;20024;-66
2022/01/12 05:41:12;;;;;;;8.38;2.15;;;;;;;;;;5070088;28;20055;-67
2022/01/12 05:43:39;;;;;;;11.98;2.35;;;;;;;;;;5069981;28;20029;-67
2022/01/12 05:46:10;;;;;;;8.13;2.22;;;;;;;;;;5069471;28;20393;-67
2022/01/12 05:51:38;;;;;;;4.25;1.55;;;;;;;;;;5070139;28;20040;-68
2022/01/12 05:54:04;;;;;;;6.00;1.83;;;;;;;;;;5069973;28;20017;-68
2022/01/12 05:56:29;;;;;;;15.07;2.13;;;;;;;;;;5069725;28;20024;-68
2022/01/12 05:58:55;;;;;;;6.95;1.90;;;;;;;;;;5069721;28;20417;-66
2022/01/12 06:01:20;;;;;;;6.93;1.85;;;;;;;;;;5069730;28;20032;-66
2022/01/12 06:03:46;;;;;;;6.05;1.77;;;;;;;;;;5069923;28;20035;-68
2022/01/12 06:06:12;;;;;;;4.75;1.80;;;;;;;;;;5069779;28;20328;-67
2022/01/12 06:08:37;;;;;;;5.22;1.50;;;;;;;;;;5069873;28;20027;-67
2022/01/12 06:11:04;;;;;;;3.33;1.50;;;;;;;;;;5069843;28;20066;-67
2022/01/12 06:13:29;;;;;;;7.72;1.98;;;;;;;;;;5069797;28;20025;-67
2022/01/12 06:15:55;;;;;;;6.68;1.52;;;;;;;;;;5069374;28;20070;-68
2022/01/12 06:18:20;;;;;;;5.95;1.92;;;;;;;;;;5069820;28;20535;-68
2022/01/12 06:20:45;;;;;;;5.00;1.60;;;;;;;;;;5069731;28;20509;-67
2022/01/12 06:23:11;;;;;;;5.65;1.60;;;;;;;;;;5070234;28;20082;-67
2022/01/12 06:25:36;;;;;;;5.35;1.80;;;;;;;;;;5069430;28;20020;-68
2022/01/12 06:33:31;;;;;;;6.05;1.30;;;;;;;;;;5069764;28;20035;-66
2022/01/12 06:35:56;;;;;;;3.90;1.30;;;;;;;;;;5069314;28;20024;-69
2022/01/12 06:38:22;;;;;;;5.82;1.70;;;;;;;;;;5069617;28;20024;-68
2022/01/12 06:40:47;;;;;;;4.55;1.70;;;;;;;;;;5068383;28;20475;-67
2022/01/12 06:43:13;;;;;;;5.75;1.52;;;;;;;;;;5069515;28;20479;-68
2022/01/12 06:45:39;;;;;;;4.15;1.60;;;;;;;;;;5069248;28;20233;-68
2022/01/12 06:48:05;;;;;;;3.95;1.50;;;;;;;;;;5069340;28;20442;-67
2022/01/12 06:50:31;;;;;;;2.60;1.40;;;;;;;;;;5069424;28;20044;-68
2022/01/12 06:52:56;;;;;;;6.68;1.58;;;;;;;;;;5069260;28;20392;-68
2022/01/12 06:55:22;;;;;;;6.40;1.50;;;;;;;;;;5072273;28;20021;-68
2022/01/12 06:57:47;;;;;;;5.05;1.42;;;;;;;;;;5073101;28;20111;-67
2022/01/12 07:00:13;;;;;;;6.97;1.48;;;;;;;;;;5073252;28;20021;-67
2022/01/12 07:02:39;;;;;;;3.95;1.50;;;;;;;;;;5072985;28;20066;-67
2022/01/12 07:05:04;;;;;;;6.80;1.70;;;;;;;;;;5072636;28;20031;-68
2022/01/12 07:07:30;;;;;;;6.65;2.00;;;;;;;;;;5072611;28;20111;-67
2022/01/12 07:09:55;;;;;;;6.22;1.60;;;;;;;;;;5072947;28;20021;-69
2022/01/12 07:12:21;;;;;;;3.55;1.25;;;;;;;;;;5072716;28;20115;-67
2022/01/12 07:14:46;;;;;;;7.57;1.60;;;;;;;;;;5072487;28;20305;-67
2022/01/12 07:17:13;;;;;;;7.18;1.45;;;;;;;;;;5072382;28;20040;-67
2022/01/12 07:19:38;;;;;;;6.50;2.00;;;;;;;;;;5072480;28;20043;-66
2022/01/12 07:22:07;;;;;;;4.45;1.80;;;;;;;;;;5072588;28;20460;-67
2022/01/12 07:24:32;;;;;;;4.15;1.67;;;;;;;;;;5072623;28;20028;-66
2022/01/12 07:26:57;;;;;;;3.75;1.65;;;;;;;;;;5072091;28;20035;-66
2022/01/12 07:29:23;;;;;;;5.97;1.48;;;;;;;;;;5072316;28;20035;-66
2022/01/12 07:31:48;;;;;;;6.80;1.60;;;;;;;;;;5072260;28;20028;-68
2022/01/12 07:34:15;;;;;;;5.40;1.77;;;;;;;;;;5072382;28;20028;-67
2022/01/12 07:36:42;;;;;;;4.82;1.45;;;;;;;;;;5072182;28;20025;-67
2022/01/12 07:39:08;;;;;;;6.35;1.90;;;;;;;;;;5072278;28;20017;-68
2022/01/12 07:41:34;;;;;;;5.70;1.80;;;;;;;;;;5072357;28;20028;-66
2022/01/12 07:43:59;;;;;;;6.60;1.67;;;;;;;;;;5071921;28;20025;-67
2022/01/12 07:46:24;;;;;;;4.00;1.55;;;;;;;;;;5071802;28;20155;-68
2022/01/12 07:48:50;;;;;;;5.72;1.50;;;;;;;;;;5072081;28;20032;-67
2022/01/12 07:51:15;;;;;;;4.70;1.85;;;;;;;;;;5072151;28;20028;-67
2022/01/12 07:53:41;;;;;;;4.68;1.75;;;;;;;;;;5072018;28;20033;-67
2022/01/12 07:56:06;;;;;;;6.35;1.77;;;;;;;;;;5071795;28;20468;-69
2022/01/12 07:58:32;;;;;;;7.15;1.75;;;;;;;;;;5071702;28;20078;-68
2022/01/12 08:00:58;;;;;;;7.65;1.77;;;;;;;;;;5072470;28;20364;-66
2022/01/12 08:03:23;;;;;;;5.97;1.67;;;;;;;;;;5071746;28;20598;-68
2022/01/12 08:05:50;;;;;;;6.38;2.05;;;;;;;;;;5071353;28;20032;-66
2022/01/12 08:08:16;;;;;;;9.13;1.80;;;;;;;;;;5071716;28;20418;-66
2022/01/12 08:10:42;;;;;;;7.07;1.75;;;;;;;;;;5071581;28;20468;-67
2022/01/12 08:13:07;;;;;;;4.90;1.58;;;;;;;;;;5071414;28;20031;-69
2022/01/12 08:15:32;;;;;;;8.50;1.83;;;;;;;;;;5071085;28;20059;-68
2022/01/12 08:17:58;;;;;;;6.55;1.67;;;;;;;;;;5071486;28;20052;-67
2022/01/12 08:20:28;;;;;;;6.25;1.60;;;;;;;;;;5071334;28;20051;-68
2022/01/12 08:22:54;;;;;;;6.57;1.63;;;;;;;;;;5071598;28;20025;-67
2022/01/12 08:25:20;;;;;;;6.43;1.75;;;;;;;;;;5071431;28;20440;-68
2022/01/12 08:27:45;;;;;;;5.18;1.70;;;;;;;;;;5071042;28;20067;-68
2022/01/12 08:30:17;;;;;;;3.45;1.80;;;;;;;;;;5070956;28;20040;-67
2022/01/12 08:32:48;;;;;;;5.03;2.00;;;;;;;;;;5070845;28;20035;-67
2022/01/12 08:35:14;;;;;;;8.80;2.10;;;;;;;;;;5070915;28;20392;-68
2022/01/12 08:37:41;;;;;;;6.50;1.80;;;;;;;;;;5070794;28;20029;-67
2022/01/12 08:40:07;;;;;;;9.60;2.00;;;;;;;;;;5071179;28;20032;-67
2022/01/12 08:42:33;;;;;;;6.57;2.10;;;;;;;;;;5070717;28;20047;-68
2022/01/12 08:45:00;;;;;;;11.98;2.28;;;;;;;;;;5070595;28;20112;-67
2022/01/12 08:47:26;;;;;;;7.55;2.10;;;;;;;;;;5070287;28;20101;-67
2022/01/12 08:49:51;;;;;;;11.55;1.98;;;;;;;;;;5070583;28;20395;-68
2022/01/12 08:52:17;;;;;;;5.57;2.00;;;;;;;;;;5070578;28;20032;-68
2022/01/12 08:54:43;;;;;;;5.43;2.20;;;;;;;;;;5070640;28;20467;-68
2022/01/12 08:57:08;;;;;;;8.05;2.08;;;;;;;;;;5070532;28;20392;-68
2022/01/12 08:59:34;;;;;;;5.15;1.80;;;;;;;;;;5070468;28;20507;-69
2022/01/12 09:01:59;;;;;;;10.25;2.40;;;;;;;;;;5070534;28;20028;-69
2022/01/12 09:04:27;;;;;;;4.93;2.17;;;;;;;;;;5070680;28;20365;-69
2022/01/12 09:06:52;;;;;;;7.13;2.33;;;;;;;;;;5070277;28;20040;-69
2022/01/12 09:09:18;;;;;;;4.88;2.10;;;;;;;;;;5070239;28;20029;-68
2022/01/12 09:11:43;;;;;;;6.40;2.53;;;;;;;;;;5070381;28;20039;-69
2022/01/12 09:14:09;;;;;;;6.43;2.30;;;;;;;;;;5070264;28;20029;-68
2022/01/12 09:16:35;;;;;;;8.40;2.65;;;;;;;;;;5069805;28;20040;-68
2022/01/12 09:19:00;;;;;;;8.40;3.10;;;;;;;;;;5070522;28;20166;-68
2022/01/12 09:21:28;;;;;;;7.47;2.88;;;;;;;;;;5070308;28;20423;-68
2022/01/12 09:23:53;;;;;;;7.90;3.10;;;;;;;;;;5070312;28;20653;-68
2022/01/12 09:26:18;;;;;;;11.18;4.00;;;;;;;;;;5069993;28;20245;-68
2022/01/12 09:28:45;;;;;;;9.85;4.50;;;;;;;;;;5070105;28;20395;-68
2022/01/12 09:31:11;;;;;;;9.32;4.38;;;;;;;;;;5070345;28;20240;-68
2022/01/12 09:33:37;;;;;;;9.07;3.50;;;;;;;;;;5070306;28;20218;-69
2022/01/12 09:36:03;;;;;;;7.85;3.42;;;;;;;;;;5070184;28;20024;-68
2022/01/12 09:38:28;;;;;;;9.07;3.38;;;;;;;;;;5070219;28;20021;-69
2022/01/12 09:40:54;;;;;;;5.80;2.53;;;;;;;;;;5069996;28;20020;-68
2022/01/12 09:43:24;;;;;;;9.32;2.85;;;;;;;;;;5070533;28;20047;-68
2022/01/12 09:45:51;;;;;;;7.35;2.42;;;;;;;;;;5069926;28;20391;-68
2022/01/12 09:48:21;;;;;;;5.97;2.30;;;;;;;;;;5069902;28;20020;-69
2022/01/12 09:50:47;;;;;;;7.43;2.60;;;;;;;;;;5070198;28;20070;-68
2022/01/12 09:53:12;;;;;;;7.40;2.38;;;;;;;;;;5069946;28;20037;-68
2022/01/12 09:55:38;;;;;;;6.07;2.40;;;;;;;;;;5069763;28;20135;-68
2022/01/12 09:58:03;;;;;;;11.30;2.78;;;;;;;;;;5069374;28;20111;-67
2022/01/12 10:00:29;;;;;;;6.28;2.25;;;;;;;;;;5069537;28;20025;-68
2022/01/12 10:02:56;;;;;;;6.30;2.42;;;;;;;;;;5069857;28;20058;-68
2022/01/12 10:05:31;;;;;;;9.38;2.45;;;;;;;;;;5070143;28;20044;-68
2022/01/12 10:08:14;;;;;;;6.25;2.55;;;;;;;;;;5069561;28;20468;-69
2022/01/12 10:10:42;;;;;;;8.73;2.20;;;;;;;;;;5069955;28;20054;-68
2022/01/12 10:13:23;;;;;;;8.63;2.60;;;;;;;;;;5069489;28;20570;-68
2022/01/12 10:15:51;;;;;;;5.60;2.70;;;;;;;;;;5069351;28;20071;-68
2022/01/12 10:18:18;;;;;;;7.30;3.03;;;;;;;;;;5069538;28;20025;-68
2022/01/12 10:20:45;;;;;;;7.10;2.95;;;;;;;;;;5069795;28;20025;-68
2022/01/12 10:23:13;;;;;;;7.65;2.60;;;;;;;;;;5070161;28;20029;-68
2022/01/12 10:25:41;;;;;;;5.65;2.22;;;;;;;;;;5069659;28;20104;-68
2022/01/12 10:28:18;;;;;;;6.63;2.03;;;;;;;;;;5070732;28;20028;-68
2022/01/12 10:31:15;;;;;;;7.70;2.63;;;;;;;;;;5073204;28;20485;-68
2022/01/12 10:33:40;;;;;;;5.10;2.03;;;;;;;;;;5064633;28;20070;-68
2022/01/12 10:36:06;;;;;;;6.45;2.35;;;;;;;;;;5073368;28;20116;-67
2022/01/12 10:38:32;;;;;;;8.20;2.47;;;;;;;;;;5073380;28;20024;-67
2022/01/12 10:41:04;;;;;;;5.68;2.35;;;;;;;;;;5073422;28;20468;-69
2022/01/12 10:43:39;;;;;;;8.02;2.42;;;;;;;;;;5073226;28;20028;-68
2022/01/12 10:46:26;;;;;;;6.75;2.45;;;;;;;;;;5073386;28;20094;-68
2022/01/12 10:48:56;;;;;;;6.45;2.35;;;;;;;;;;5073034;28;20476;-68
2022/01/12 10:51:25;;;;;;;6.55;2.10;;;;;;;;;;5073209;28;20027;-68
2022/01/12 10:53:52;;;;;;;6.05;2.30;;;;;;;;;;5072961;28;20115;-68
2022/01/12 10:56:23;;;;;;;7.72;2.50;;;;;;;;;;5073036;28;20252;-67
2022/01/12 10:58:51;;;;;;;7.75;2.35;;;;;;;;;;5072639;28;20102;-66
2022/01/12 11:01:21;;;;;;;7.65;2.30;;;;;;;;;;5072947;28;20047;-68
2022/01/12 11:03:47;;;;;;;6.72;2.40;;;;;;;;;;5073114;28;20115;-68
2022/01/12 11:06:13;;;;;;;8.60;2.40;;;;;;;;;;5072750;28;20024;-68
2022/01/12 11:08:40;;;;;;;6.18;2.20;;;;;;;;;;5072540;28;20332;-68
2022/01/12 11:11:06;;;;;;;9.70;2.35;;;;;;;;;;5072853;28;20036;-68
2022/01/12 11:13:33;;;;;;;8.32;2.42;;;;;;;;;;5072684;28;20373;-68
2022/01/12 11:16:02;;;;;;;11.85;2.25;;;;;;;;;;5072384;28;20078;-68
2022/01/12 11:18:31;;;;;;;5.18;1.92;;;;;;;;;;5072494;28;20325;-67
2022/01/12 11:21:35;;;;;;;7.07;2.08;;;;;;;;;;5072860;28;20035;-68
2022/01/12 11:24:04;;;;;;;7.38;2.20;;;;;;;;;;5070266;28;20134;-68
2022/01/12 11:26:31;;;;;;;15.68;7.75;;;;;;;;;;5072420;28;20032;-69
2022/01/12 11:28:57;;;;;;;14.93;6.20;;;;;;;;;;5072446;28;20101;-68
2022/01/12 11:31:25;;;;;;;8.38;2.70;;;;;;;;;;5072575;28;20373;-68
2022/01/12 11:33:51;;;;;;;8.90;2.30;;;;;;;;;;5072345;28;20025;-67
2022/01/12 11:36:37;;;;;;;11.57;4.97;;;;;;;;;;5072392;28;20028;-67
2022/01/12 11:39:15;;;;;;;10.93;4.18;;;;;;;;;;5071767;28;20094;-68
2022/01/12 11:41:43;;;;;;;17.25;5.72;;;;;;;;;;5072545;28;20107;-68
2022/01/12 11:44:18;;;;;;;6.55;2.53;;;;;;;;;;5072407;28;20074;-67
2022/01/12 11:46:43;;;;;;;7.80;2.50;;;;;;;;;;5072358;28;20044;-68
2022/01/12 11:49:09;;;;;;;7.63;2.10;;;;;;;;;;5072142;28;20028;-68
2022/01/12 11:51:37;;;;;;;5.40;2.23;;;;;;;;;;5072034;28;20025;-68
2022/01/12 11:54:17;;;;;;;6.47;2.00;;;;;;;;;;5071881;28;20039;-68
2022/01/12 11:56:54;;;;;;;7.30;2.40;;;;;;;;;;5071679;28;20031;-68
2022/01/12 11:59:21;;;;;;;5.15;1.70;;;;;;;;;;5071506;28;20024;-68
2022/01/12 12:01:53;;;;;;;7.82;2.30;;;;;;;;;;5071692;28;20066;-68
2022/01/12 12:04:30;;;;;;;5.03;1.77;;;;;;;;;;5070817;28;20117;-68
2022/01/12 12:07:13;;;;;;;5.80;2.05;;;;;;;;;;5072174;28;20043;-69
2022/01/12 12:09:44;;;;;;;7.20;1.67;;;;;;;;;;5071823;28;20051;-68
2022/01/12 12:12:17;;;;;;;5.20;1.75;;;;;;;;;;5071472;28;20523;-68
2022/01/12 12:14:45;;;;;;;4.72;1.40;;;;;;;;;;5071285;28;20024;-68
2022/01/12 12:17:11;;;;;;;6.97;1.77;;;;;;;;;;5070963;28;20439;-68
2022/01/12 12:19:37;;;;;;;5.30;1.45;;;;;;;;;;5071242;28;20017;-69
2022/01/12 12:22:16;;;;;;;5.15;1.30;;;;;;;;;;5071448;28;20028;-68
2022/01/12 12:24:43;;;;;;;4.45;1.60;;;;;;;;;;5071447;28;20544;-68
2022/01/12 12:27:10;;;;;;;4.07;1.17;;;;;;;;;;5071345;28;20020;-67
2022/01/12 12:29:37;;;;;;;3.72;1.35;;;;;;;;;;5071492;28;20027;-68
2022/01/12 12:32:05;;;;;;;6.63;1.40;;;;;;;;;;5070876;28;20024;-67
2022/01/12 12:34:33;;;;;;;4.28;1.40;;;;;;;;;;5071248;28;20568;-68
2022/01/12 12:37:05;;;;;;;6.80;1.85;;;;;;;;;;5071353;28;20261;-68
2022/01/12 12:39:33;;;;;;;5.47;1.58;;;;;;;;;;5071012;28;20029;-68
2022/01/12 12:42:00;;;;;;;6.72;1.52;;;;;;;;;;5071402;28;20031;-68
2022/01/12 12:44:30;;;;;;;4.93;1.38;;;;;;;;;;5070853;28;20113;-68
2022/01/12 12:47:17;;;;;;;3.35;1.42;;;;;;;;;;5070744;28;20044;-68
2022/01/12 12:49:45;;;;;;;6.10;1.52;;;;;;;;;;5070785;28;20107;-69
2022/01/12 12:52:11;;;;;;;3.67;1.30;;;;;;;;;;5069918;28;20020;-68
2022/01/12 12:54:42;;;;;;;4.03;1.40;;;;;;;;;;5070779;28;20028;-69
2022/01/12 12:57:09;;;;;;;5.30;1.40;;;;;;;;;;5070553;28;20024;-69
2022/01/12 12:59:35;;;;;;;3.42;1.40;;;;;;;;;;5070512;28;20442;-68
2022/01/12 13:02:09;;;;;;;8.93;1.67;;;;;;;;;;5070510;28;20495;-68
2022/01/12 13:04:35;;;;;;;7.03;1.85;;;;;;;;;;5070361;28;20479;-68
2022/01/12 13:07:11;;;;;;;5.05;1.50;;;;;;;;;;5070842;28;20024;-68
2022/01/12 13:09:36;;;;;;;5.22;1.45;;;;;;;;;;5070117;28;20509;-68
2022/01/12 13:12:03;;;;;;;5.78;1.20;;;;;;;;;;5070269;28;20119;-67
2022/01/12 13:14:29;;;;;;;3.40;1.20;;;;;;;;;;5070320;28;20030;-68
2022/01/12 13:16:55;;;;;;;3.40;1.42;;;;;;;;;;5068908;28;20068;-67
2022/01/12 13:21:07;;;;;;;3.40;1.30;;;;;;;;;;5070162;28;20021;-68
2022/01/12 13:22:26;;;;;;;6.07;1.10;;;;;;;;;;5069932;28;20038;-67
2022/01/12 13:24:53;;;;;;;4.38;1.33;;;;;;;;;;5070218;28;20027;-67
2022/01/12 13:27:20;;;;;;;3.67;1.10;;;;;;;;;;5070329;28;20118;-67
2022/01/12 13:29:49;;;;;;;5.68;1.27;;;;;;;;;;5070111;28;20414;-67
2022/01/12 13:32:15;;;;;;;4.22;1.20;;;;;;;;;;5070074;28;20150;-67
2022/01/12 13:34:43;;;;;;;2.90;0.93;;;;;;;;;;5070237;28;20035;-67
2022/01/12 13:37:18;;;;;;;3.25;1.15;;;;;;;;;;5070456;28;20023;-68
2022/01/12 13:39:43;;;;;;;3.25;0.95;;;;;;;;;;5070004;28;20021;-68
2022/01/12 13:42:09;;;;;;;3.45;1.00;;;;;;;;;;5070139;28;20051;-68
2022/01/12 13:44:34;;;;;;;2.75;1.00;;;;;;;;;;5069832;28;20392;-68
2022/01/12 13:47:11;;;;;;;2.60;1.23;;;;;;;;;;5070025;28;20487;-68
2022/01/12 13:49:36;;;;;;;2.50;0.90;;;;;;;;;;5070015;28;20073;-69
2022/01/12 13:52:08;;;;;;;2.17;0.90;;;;;;;;;;5069942;28;20036;-67
2022/01/12 13:54:35;;;;;;;3.28;1.15;;;;;;;;;;5069929;28;20017;-67
2022/01/12 13:57:01;;;;;;;2.55;1.05;;;;;;;;;;5069943;28;20528;-67
2022/01/12 13:59:29;;;;;;;2.58;1.00;;;;;;;;;;5069775;28;20617;-68
2022/01/12 14:01:57;;;;;;;2.30;1.02;;;;;;;;;;5068657;28;20039;-68
2022/01/12 14:04:43;;;;;;;3.95;1.08;;;;;;;;;;5074129;28;20050;-68
2022/01/12 14:07:11;;;;;;;4.25;1.10;;;;;;;;;;5074108;28;20503;-68
2022/01/12 14:09:42;;;;;;;3.40;1.38;;;;;;;;;;5073834;28;20539;-68
2022/01/12 14:12:11;;;;;;;3.67;1.05;;;;;;;;;;5073652;28;20503;-68
2022/01/12 14:14:47;;;;;;;5.53;1.15;;;;;;;;;;5073635;28;20391;-69
2022/01/12 14:17:29;;;;;;;6.68;3.42;;;;;;;;;;5073552;28;20109;-67
2022/01/12 14:19:59;;;;;;;9.50;4.75;;;;;;;;;;5073412;28;20471;-68
2022/01/12 14:22:26;;;;;;;5.07;2.67;;;;;;;;;;5073724;28;20115;-68
2022/01/12 14:24:58;;;;;;;3.63;1.60;;;;;;;;;;5073649;28;20498;-67
2022/01/12 14:27:23;;;;;;;4.68;2.38;;;;;;;;;;5073382;28;20107;-68
2022/01/12 14:29:49;;;;;;;3.78;2.20;;;;;;;;;;5073172;28;20108;-69
2022/01/12 14:32:15;;;;;;;5.72;1.80;;;;;;;;;;5073499;28;20031;-69
2022/01/12 14:34:40;;;;;;;4.72;1.90;;;;;;;;;;5073404;28;20461;-68
2022/01/12 14:37:06;;;;;;;3.15;1.20;;;;;;;;;;5074002;28;20032;-68
2022/01/12 14:39:32;;;;;;;4.85;1.30;;;;;;;;;;5073383;28;20028;-68
2022/01/12 14:41:58;;;;;;;4.70;2.13;;;;;;;;;;5073260;28;20024;-68
2022/01/12 14:44:29;;;;;;;11.30;4.95;;;;;;;;;;5072822;28;20067;-68
2022/01/12 14:46:54;;;;;;;4.13;2.38;;;;;;;;;;5073086;28;20479;-69
2022/01/12 14:49:20;;;;;;;7.88;3.53;;;;;;;;;;5072741;28;20039;-69
2022/01/12 14:51:46;;;;;;;2.40;1.17;;;;;;;;;;5073009;28;20031;-67
2022/01/12 14:54:11;;;;;;;3.45;1.10;;;;;;;;;;5073048;28;20552;-68
2022/01/12 14:56:36;;;;;;;3.53;1.58;;;;;;;;;;5073049;28;20020;-68
2022/01/12 14:59:02;;;;;;;5.32;1.10;;;;;;;;;;5072546;28;20399;-67
2022/01/12 15:01:28;;;;;;;5.45;1.75;;;;;;;;;;5072847;28;20369;-67
2022/01/12 15:03:53;;;;;;;4.85;1.70;;;;;;;;;;5072792;28;20068;-67
2022/01/12 15:06:18;;;;;;;3.55;1.40;;;;;;;;;;5072712;28;20495;-68
2022/01/12 15:08:44;;;;;;;4.22;2.00;;;;;;;;;;5072574;28;20403;-68
2022/01/12 15:11:10;;;;;;;5.00;2.05;;;;;;;;;;5073042;28;20029;-68
2022/01/12 15:13:51;;;;;;;10.02;2.95;;;;;;;;;;5072752;28;20118;-68
2022/01/12 15:16:18;;;;;;;10.65;2.63;;;;;;;;;;5072104;28;20049;-67
2022/01/12 15:18:43;;;;;;;4.60;1.83;;;;;;;;;;5072426;28;20098;-67
2022/01/12 15:21:09;;;;;;;6.82;2.00;;;;;;;;;;5072543;28;20067;-68
2022/01/12 15:23:34;;;;;;;5.32;1.70;;;;;;;;;;5072415;28;20025;-67
2022/01/12 15:26:00;;;;;;;8.98;2.28;;;;;;;;;;5072697;28;20029;-67
2022/01/12 15:28:25;;;;;;;6.72;2.53;;;;;;;;;;5071281;28;20028;-67
2022/01/12 15:30:51;;;;;;;6.30;2.05;;;;;;;;;;5072331;28;20038;-68
2022/01/12 15:33:16;;;;;;;6.78;2.33;;;;;;;;;;5072065;28;20033;-67
2022/01/12 15:35:42;;;;;;;3.47;1.52;;;;;;;;;;5072331;28;20240;-67
2022/01/12 15:38:09;;;;;;;5.38;1.50;;;;;;;;;;5072454;28;20108;-68
2022/01/12 15:40:38;;;;;;;7.40;2.13;;;;;;;;;;5071866;28;20024;-66
2022/01/12 15:43:03;;;;;;;5.22;1.30;;;;;;;;;;5072193;28;20063;-69
2022/01/12 15:45:30;;;;;;;3.60;1.35;;;;;;;;;;5072126;28;20044;-67
2022/01/12 15:47:55;;;;;;;4.32;1.77;;;;;;;;;;5071957;28;20032;-69
2022/01/12 15:50:21;;;;;;;9.13;2.47;;;;;;;;;;5071656;28;20024;-69
2022/01/12 15:52:46;;;;;;;7.20;3.38;;;;;;;;;;5072151;28;20090;-68
2022/01/12 15:55:12;;;;;;;11.85;4.80;;;;;;;;;;5071866;28;20199;-68
2022/01/12 15:57:37;;;;;;;9.50;4.40;;;;;;;;;;5071959;28;20438;-67
2022/01/12 16:00:05;;;;;;;13.07;5.28;;;;;;;;;;5071622;28;20017;-68
2022/01/12 16:02:31;;;;;;;11.10;5.63;;;;;;;;;;5071685;28;20035;-68
2022/01/12 16:04:56;;;;;;;8.45;3.70;;;;;;;;;;5072164;28;20025;-68
2022/01/12 16:07:22;;;;;;;8.50;4.38;;;;;;;;;;5071691;28;20546;-67
2022/01/12 16:09:47;;;;;;;6.07;3.30;;;;;;;;;;5071228;28;20389;-68
2022/01/12 16:12:13;;;;;;;7.32;3.55;;;;;;;;;;5071540;28;20021;-68